Time;durP1;ratioP1;P1;durP2;ratioP2;P2;SDS_P1;SDS_P2;PMS_P1;PMS_P2;Temp;Humidity;BMP_temperature;BMP_pressure;BME280_temperature;BME280_humidity;BME280_pressure;Samples;Min_cycle;Max_cycle;Signal;HPM_P1;HPM_P2
2022/12/23 00:01:29;;;;;;;7.87;4.03;;;10.00;99.90;;;;;;4896573;29;20414;-72
2022/12/23 00:03:57;;;;;;;9.37;4.07;;;10.00;99.90;;;;;;4896707;28;20475;-72
2022/12/23 00:06:23;;;;;;;5.90;3.07;;;10.00;99.90;;;;;;4895987;28;20477;-72
2022/12/23 00:08:56;;;;;;;7.47;3.20;;;10.00;99.90;;;;;;4903594;28;20448;-72
2022/12/23 00:11:27;;;;;;;9.90;3.50;;;10.00;99.90;;;;;;4930126;29;20401;-72
2022/12/23 00:16:44;;;;;;;6.60;2.80;;;10.00;99.90;;;;;;4896582;29;20440;-72
2022/12/23 00:19:13;;;;;;;6.63;2.93;;;10.00;99.90;;;;;;4896096;29;20488;-72
2022/12/23 00:21:41;;;;;;;4.97;2.80;;;10.00;99.90;;;;;;4896782;29;20401;-72
2022/12/23 00:24:07;;;;;;;6.10;2.93;;;10.00;99.90;;;;;;4913112;29;20547;-73
2022/12/23 00:26:33;;;;;;;8.90;3.27;;;10.00;99.90;;;;;;4911656;28;20468;-72
2022/12/23 00:29:04;;;;;;;5.83;2.60;;;10.00;99.90;;;;;;4917972;29;20776;-73
2022/12/23 00:31:30;;;;;;;7.17;3.07;;;10.00;99.90;;;;;;4895283;29;20494;-73
2022/12/23 00:33:58;;;;;;;8.70;3.23;;;10.00;99.90;;;;;;4896097;29;21017;-72
2022/12/23 00:36:28;;;;;;;5.37;2.73;;;10.00;99.90;;;;;;4911109;29;20436;-72
2022/12/23 00:44:28;;;;;;;8.83;3.37;;;10.00;99.90;;;;;;4895495;28;21017;-73
2022/12/23 00:46:54;;;;;;;6.50;3.13;;;9.90;99.90;;;;;;4910849;29;20819;-72
2022/12/23 00:52:18;;;;;;;4.67;2.70;;;9.90;99.90;;;;;;4894810;28;20878;-72
2022/12/23 00:54:51;;;;;;;5.53;3.23;;;9.90;99.90;;;;;;4910322;29;20407;-72
2022/12/23 00:57:17;;;;;;;7.73;2.93;;;10.00;99.90;;;;;;4897710;29;20880;-72
2022/12/23 00:59:46;;;;;;;4.23;2.60;;;10.00;99.90;;;;;;4907617;28;20453;-73
2022/12/23 01:07:43;;;;;;;9.37;2.77;;;10.00;99.90;;;;;;4908918;29;20458;-72
2022/12/23 01:10:09;;;;;;;6.90;3.00;;;10.00;99.90;;;;;;4910666;29;20447;-73
2022/12/23 01:12:35;;;;;;;6.87;2.80;;;10.00;99.90;;;;;;4904702;29;20241;-72
2022/12/23 01:15:01;;;;;;;7.67;3.10;;;10.00;99.90;;;;;;4893438;28;20464;-72
2022/12/23 01:17:29;;;;;;;5.57;3.13;;;10.00;99.90;;;;;;4911152;29;20520;-72
2022/12/23 01:19:55;;;;;;;6.03;2.80;;;10.00;99.90;;;;;;4884545;29;20535;-73
2022/12/23 01:22:26;;;;;;;4.67;3.10;;;10.00;99.90;;;;;;4909438;29;20492;-73
2022/12/23 01:24:52;;;;;;;6.73;3.10;;;10.00;99.90;;;;;;4909455;29;20499;-72
2022/12/23 01:27:18;;;;;;;8.67;3.60;;;10.00;99.90;;;;;;4894205;29;20460;-72
2022/12/23 01:29:44;;;;;;;8.07;3.30;;;10.00;99.90;;;;;;4908520;28;20463;-73
2022/12/23 01:32:15;;;;;;;9.77;3.87;;;10.00;99.90;;;;;;4905496;29;20461;-72
2022/12/23 01:34:43;;;;;;;5.73;3.53;;;10.00;99.90;;;;;;4895527;29;20402;-72
2022/12/23 01:37:09;;;;;;;7.90;3.90;;;10.00;99.90;;;;;;4895433;29;20440;-72
2022/12/23 01:39:37;;;;;;;8.70;3.23;;;10.00;99.90;;;;;;4895056;29;20434;-72
2022/12/23 01:45:05;;;;;;;5.30;3.20;;;10.00;99.90;;;;;;4913953;29;20981;-73
2022/12/23 01:47:45;;;;;;;6.93;3.50;;;10.00;99.90;;;;;;4897335;29;20475;-72
2022/12/23 01:50:26;;;;;;;6.50;3.10;;;10.00;99.90;;;;;;4912084;28;20499;-72
2022/12/23 01:53:03;;;;;;;6.50;3.90;;;10.10;99.90;;;;;;4923357;28;20472;-72
2022/12/23 01:55:55;;;;;;;8.40;4.50;;;10.10;99.90;;;;;;4893763;28;20465;-73
2022/12/23 01:58:45;;;;;;;8.00;3.57;;;10.10;99.90;;;;;;4860014;29;20572;-72
2022/12/23 02:04:04;;;;;;;11.77;4.00;;;10.00;99.90;;;;;;4913570;29;20572;-72
2022/12/23 02:09:23;;;;;;;7.70;3.83;;;10.00;99.90;;;;;;4928108;29;20417;-72
2022/12/23 02:12:08;;;;;;;7.70;3.90;;;10.00;99.90;;;;;;4928008;29;20397;-73
2022/12/23 02:18:07;;;;;;;6.87;4.20;;;10.00;99.90;;;;;;4909485;29;20493;-72
2022/12/23 02:20:53;;;;;;;6.93;3.90;;;10.10;99.90;;;;;;4895744;29;20523;-73
2022/12/23 02:23:57;;;;;;;4.93;3.50;;;10.10;99.90;;;;;;4891437;29;20485;-72
2022/12/23 02:26:46;;;;;;;6.03;3.50;;;10.10;99.90;;;;;;4936424;28;20506;-72
2022/12/23 02:29:18;;;;;;;9.33;3.73;;;10.00;99.90;;;;;;4911956;29;20456;-72
2022/12/23 02:32:09;;;;;;;6.43;4.40;;;10.10;99.90;;;;;;4913194;29;20412;-72
2022/12/23 02:34:52;;;;;;;6.40;4.20;;;10.10;99.90;;;;;;4884796;29;20430;-72
2022/12/23 02:37:32;;;;;;;7.90;3.67;;;10.10;99.90;;;;;;4893403;29;20410;-73
2022/12/23 02:40:03;;;;;;;5.70;4.07;;;10.10;99.90;;;;;;4896698;29;20433;-72
2022/12/23 02:42:29;;;;;;;5.03;3.60;;;10.10;99.90;;;;;;4908824;29;20453;-72
2022/12/23 02:45:24;;;;;;;8.77;4.70;;;10.10;99.90;;;;;;4905528;29;20785;-72
2022/12/23 02:47:55;;;;;;;7.03;4.00;;;10.10;99.90;;;;;;4911054;29;20487;-72
2022/12/23 02:50:31;;;;;;;7.70;4.10;;;10.10;99.90;;;;;;4913178;29;20409;-73
2022/12/23 02:53:19;;;;;;;5.53;3.90;;;10.10;99.90;;;;;;4911065;28;20471;-72
2022/12/23 02:55:48;;;;;;;6.90;4.80;;;10.10;99.90;;;;;;4903679;28;20446;-72
2022/12/23 02:58:21;;;;;;;6.50;4.20;;;10.10;99.90;;;;;;4894151;29;20413;-72
2022/12/23 03:00:49;;;;;;;7.97;4.90;;;10.10;99.90;;;;;;4893152;29;20398;-72
2022/12/23 03:03:16;;;;;;;6.57;5.00;;;10.10;99.90;;;;;;4893201;29;20457;-72
2022/12/23 03:05:45;;;;;;;6.57;4.67;;;10.10;99.90;;;;;;4894178;29;20456;-72
2022/12/23 03:08:33;;;;;;;7.50;5.20;;;10.10;99.90;;;;;;4894086;29;20460;-72
2022/12/23 03:11:02;;;;;;;9.10;4.40;;;10.10;99.90;;;;;;4894087;29;20792;-72
2022/12/23 03:13:54;;;;;;;6.80;4.57;;;10.10;99.90;;;;;;4906084;29;20476;-72
2022/12/23 03:16:22;;;;;;;6.67;4.13;;;10.10;99.90;;;;;;4907733;29;20488;-72
2022/12/23 03:19:24;;;;;;;10.07;4.90;;;10.10;99.90;;;;;;4893291;28;20491;-73
2022/12/23 03:22:11;;;;;;;6.83;4.53;;;10.10;99.90;;;;;;4911585;29;20495;-72
2022/12/23 03:24:44;;;;;;;6.90;5.00;;;10.10;99.90;;;;;;4924190;29;20500;-72
2022/12/23 03:27:50;;;;;;;7.03;4.70;;;10.10;99.90;;;;;;4908008;28;20474;-73
2022/12/23 03:30:21;;;;;;;7.37;5.60;;;10.10;99.90;;;;;;4911665;29;20421;-72
2022/12/23 03:32:50;;;;;;;9.47;4.80;;;10.20;99.90;;;;;;4911996;28;20457;-72
2022/12/23 03:35:27;;;;;;;6.00;5.40;;;10.10;99.90;;;;;;4909977;29;20444;-72
2022/12/23 03:38:03;;;;;;;9.47;5.60;;;10.10;99.90;;;;;;4912704;29;20408;-72
2022/12/23 03:40:40;;;;;;;7.80;5.00;;;10.10;99.90;;;;;;4911193;29;20448;-72
2022/12/23 03:43:18;;;;;;;7.73;4.97;;;10.10;99.90;;;;;;4913618;29;20458;-72
2022/12/23 03:45:52;;;;;;;8.57;5.43;;;10.20;99.90;;;;;;4911553;29;20453;-72
2022/12/23 03:48:27;;;;;;;8.37;5.50;;;10.10;99.90;;;;;;4926700;29;20518;-72
2022/12/23 03:50:57;;;;;;;7.47;5.60;;;10.10;99.90;;;;;;4926529;28;20986;-72
2022/12/23 03:53:32;;;;;;;9.20;5.33;;;10.20;99.90;;;;;;4896789;29;20532;-72
2022/12/23 03:56:11;;;;;;;8.93;5.40;;;10.10;99.90;;;;;;4910610;28;20469;-72
2022/12/23 03:58:56;;;;;;;13.40;6.00;;;10.20;99.90;;;;;;4915427;29;20404;-72
2022/12/23 04:01:42;;;;;;;9.07;5.97;;;10.10;99.90;;;;;;4912364;29;20500;-72
2022/12/23 04:04:16;;;;;;;9.13;5.17;;;10.20;99.90;;;;;;4908073;29;20458;-72
2022/12/23 04:07:00;;;;;;;10.20;6.33;;;10.10;99.90;;;;;;4894816;29;21009;-72
2022/12/23 04:09:28;;;;;;;8.30;5.50;;;10.20;99.90;;;;;;4913986;29;20460;-72
2022/12/23 04:11:55;;;;;;;9.00;4.90;;;10.10;99.90;;;;;;4918887;29;20440;-72
2022/12/23 04:14:21;;;;;;;8.50;6.30;;;10.10;99.90;;;;;;4896115;29;20413;-72
2022/12/23 04:16:53;;;;;;;11.00;6.73;;;10.20;99.90;;;;;;4895517;29;20519;-72
2022/12/23 04:19:24;;;;;;;11.43;6.63;;;10.20;99.90;;;;;;4900661;29;20444;-72
2022/12/23 04:21:56;;;;;;;7.80;5.77;;;10.20;99.90;;;;;;4929576;29;20794;-72
2022/12/23 04:24:22;;;;;;;7.60;5.50;;;10.20;99.90;;;;;;4929432;29;20856;-72
2022/12/23 04:26:48;;;;;;;9.17;6.67;;;10.20;99.90;;;;;;4915089;29;20540;-72
2022/12/23 04:29:18;;;;;;;8.07;6.23;;;10.20;99.90;;;;;;4914638;28;20443;-72
2022/12/23 04:31:47;;;;;;;11.07;6.57;;;10.20;99.90;;;;;;4914189;29;20862;-73
2022/12/23 04:34:12;;;;;;;10.17;7.07;;;10.20;99.90;;;;;;4919577;29;20466;-72
2022/12/23 04:36:39;;;;;;;10.63;6.70;;;10.20;99.90;;;;;;4905921;29;20476;-72
2022/12/23 04:39:05;;;;;;;9.53;6.90;;;10.20;99.90;;;;;;4929197;29;20786;-72
2022/12/23 04:41:30;;;;;;;11.30;6.50;;;10.20;99.90;;;;;;4922429;29;20488;-72
2022/12/23 04:43:59;;;;;;;7.70;5.87;;;10.20;99.90;;;;;;4902109;29;20868;-72
2022/12/23 04:46:27;;;;;;;8.87;5.97;;;10.20;99.90;;;;;;4895531;29;20483;-72
2022/12/23 04:48:53;;;;;;;11.80;6.53;;;10.20;99.90;;;;;;4896261;29;20452;-72
2022/12/23 04:51:22;;;;;;;10.20;6.33;;;10.20;99.90;;;;;;4900721;29;20717;-72
2022/12/23 04:53:48;;;;;;;13.33;7.07;;;10.20;99.90;;;;;;4894414;29;20454;-72
2022/12/23 04:56:16;;;;;;;10.27;6.97;;;10.20;99.90;;;;;;4879395;29;20424;-72
2022/12/23 04:58:42;;;;;;;11.37;6.70;;;10.20;99.90;;;;;;4914400;29;20461;-72
2022/12/23 05:01:10;;;;;;;11.27;6.67;;;10.20;99.90;;;;;;4876334;29;20775;-73
2022/12/23 05:03:41;;;;;;;7.97;6.47;;;10.20;99.90;;;;;;4917272;28;20798;-72
2022/12/23 05:06:09;;;;;;;9.77;6.57;;;10.20;99.90;;;;;;4891540;29;20932;-72
2022/12/23 05:08:38;;;;;;;8.80;6.87;;;10.20;99.90;;;;;;4912016;29;20519;-72
2022/12/23 05:11:07;;;;;;;9.10;6.60;;;10.20;99.90;;;;;;4894618;29;20497;-72
2022/12/23 05:13:35;;;;;;;8.87;6.87;;;10.20;99.90;;;;;;4895639;29;20977;-72
2022/12/23 05:16:14;;;;;;;9.27;6.13;;;10.20;99.90;;;;;;4880972;29;20462;-72
2022/12/23 05:18:43;;;;;;;8.80;6.90;;;10.20;99.90;;;;;;4919320;29;20468;-72
2022/12/23 05:21:09;;;;;;;9.00;6.30;;;10.20;99.90;;;;;;4941500;23;20496;-75
2022/12/23 05:23:35;;;;;;;11.70;6.80;;;10.20;99.90;;;;;;5015312;28;20976;-76
2022/12/23 05:26:08;;;;;;;8.10;6.00;;;10.20;99.90;;;;;;5012060;28;20813;-74
2022/12/23 05:28:34;;;;;;;7.50;6.20;;;10.20;99.90;;;;;;5012639;28;20463;-76
2022/12/23 05:31:06;;;;;;;8.40;6.27;;;10.20;99.90;;;;;;5013063;28;20416;-76
2022/12/23 05:33:32;;;;;;;8.47;6.30;;;10.20;99.90;;;;;;5031249;28;20435;-76
2022/12/23 05:36:03;;;;;;;10.40;6.70;;;10.20;99.90;;;;;;5013281;28;20422;-75
2022/12/23 05:38:31;;;;;;;11.20;6.70;;;10.20;99.90;;;;;;5018760;28;20424;-75
2022/12/23 05:40:58;;;;;;;8.73;5.93;;;10.20;99.90;;;;;;5027956;28;20427;-75
2022/12/23 05:43:26;;;;;;;10.57;6.60;;;10.20;99.90;;;;;;4995514;28;20967;-75
2022/12/23 05:45:59;;;;;;;9.57;6.20;;;10.20;99.90;;;;;;5027427;28;20419;-75
2022/12/23 05:48:28;;;;;;;10.03;6.23;;;10.20;99.90;;;;;;5029590;28;20458;-75
2022/12/23 05:50:54;;;;;;;10.43;5.93;;;10.20;99.90;;;;;;5014277;28;20499;-75
2022/12/23 05:53:23;;;;;;;9.60;6.40;;;10.20;99.90;;;;;;4994773;28;20518;-75
2022/12/23 05:55:49;;;;;;;7.80;6.20;;;10.20;99.90;;;;;;4995305;28;20426;-75
2022/12/23 05:58:16;;;;;;;7.43;5.70;;;10.20;99.90;;;;;;5012828;28;20428;-75
2022/12/23 06:00:42;;;;;;;10.00;7.47;;;10.20;99.90;;;;;;5019835;28;20479;-75
2022/12/23 06:03:11;;;;;;;10.43;6.23;;;10.20;99.90;;;;;;5014700;28;20534;-75
2022/12/23 06:05:38;;;;;;;9.20;6.10;;;10.20;99.90;;;;;;5030496;28;20408;-75
2022/12/23 06:08:07;;;;;;;10.13;6.63;;;10.20;99.90;;;;;;5002824;28;20448;-78
2022/12/23 06:10:33;;;;;;;10.43;5.80;;;10.20;99.90;;;;;;5011614;28;20762;-76
2022/12/23 06:12:59;;;;;;;7.73;5.87;;;10.30;99.90;;;;;;5005732;28;20956;-76
2022/12/23 06:15:25;;;;;;;9.03;6.90;;;10.20;99.90;;;;;;5014650;28;20510;-76
2022/12/23 06:17:51;;;;;;;8.20;5.90;;;10.20;99.90;;;;;;5020546;28;20956;-76
2022/12/23 06:20:17;;;;;;;9.47;6.47;;;10.20;99.90;;;;;;5011140;28;20420;-76
2022/12/23 06:22:46;;;;;;;7.97;5.50;;;10.30;99.90;;;;;;4997370;28;20476;-76
2022/12/23 06:25:12;;;;;;;7.27;5.70;;;10.30;99.90;;;;;;5013958;28;20448;-77
2022/12/23 06:27:38;;;;;;;9.60;6.20;;;10.30;99.90;;;;;;5009515;28;20809;-74
2022/12/23 06:30:04;;;;;;;9.70;6.73;;;10.20;99.90;;;;;;5012854;28;20446;-76
2022/12/23 06:32:33;;;;;;;9.40;6.30;;;10.30;99.90;;;;;;4988914;28;20819;-77
2022/12/23 06:35:01;;;;;;;8.90;6.53;;;10.30;99.90;;;;;;5029578;28;20396;-74
2022/12/23 06:37:30;;;;;;;8.40;5.83;;;10.30;99.90;;;;;;4996202;28;20517;-76
2022/12/23 06:39:56;;;;;;;7.17;5.77;;;10.20;99.90;;;;;;4995810;28;20447;-74
2022/12/23 06:42:27;;;;;;;10.20;6.00;;;10.30;99.90;;;;;;4995729;28;20452;-75
2022/12/23 06:44:53;;;;;;;9.30;6.60;;;10.20;99.90;;;;;;5012820;28;20438;-75
2022/12/23 06:47:19;;;;;;;10.30;6.53;;;10.20;99.90;;;;;;5000122;28;20447;-75
2022/12/23 06:49:45;;;;;;;9.37;6.97;;;10.20;99.90;;;;;;5008006;28;20428;-75
2022/12/23 06:52:16;;;;;;;9.57;6.27;;;10.20;99.90;;;;;;5001433;28;20526;-75
2022/12/23 06:54:43;;;;;;;8.77;6.20;;;10.20;99.90;;;;;;4979571;28;20527;-75
2022/12/23 06:57:10;;;;;;;9.63;6.80;;;10.30;99.90;;;;;;5018881;28;20864;-76
2022/12/23 06:59:37;;;;;;;11.40;6.27;;;10.20;99.90;;;;;;5023332;28;20476;-74
2022/12/23 07:02:05;;;;;;;11.10;6.73;;;10.20;99.90;;;;;;5010590;28;20456;-75
2022/12/23 07:04:36;;;;;;;11.40;7.20;;;10.20;99.90;;;;;;5012047;28;20482;-75
2022/12/23 07:07:04;;;;;;;10.90;7.37;;;10.20;99.90;;;;;;5012777;28;21075;-74
2022/12/23 07:09:30;;;;;;;9.47;6.10;;;10.30;99.90;;;;;;5006636;28;20451;-75
2022/12/23 07:11:57;;;;;;;10.63;6.97;;;10.20;99.90;;;;;;5012284;28;20487;-74
2022/12/23 07:14:22;;;;;;;11.20;7.37;;;10.30;99.90;;;;;;5011313;28;20461;-75
2022/12/23 07:16:53;;;;;;;8.73;6.37;;;10.20;99.90;;;;;;5013464;28;20446;-74
2022/12/23 07:19:24;;;;;;;9.13;6.37;;;10.20;99.90;;;;;;4998407;28;20436;-74
2022/12/23 07:21:53;;;;;;;11.93;7.10;;;10.20;99.90;;;;;;5022715;28;20776;-75
2022/12/23 07:24:21;;;;;;;8.80;6.73;;;10.30;99.90;;;;;;4998614;28;20932;-75
2022/12/23 07:26:47;;;;;;;9.37;6.97;;;10.30;99.90;;;;;;5002998;28;20547;-74
2022/12/23 07:29:17;;;;;;;10.07;6.50;;;10.30;99.90;;;;;;5030525;28;20417;-75
2022/12/23 07:31:43;;;;;;;12.80;6.80;;;10.20;99.90;;;;;;5001283;28;20473;-74
2022/12/23 07:34:09;;;;;;;9.93;6.60;;;10.30;99.90;;;;;;5024681;28;20542;-75
2022/12/23 07:36:35;;;;;;;10.30;7.20;;;10.20;99.90;;;;;;5029898;28;20506;-75
2022/12/23 07:39:05;;;;;;;9.70;6.50;;;10.30;99.90;;;;;;5024837;28;20988;-74
2022/12/23 07:41:36;;;;;;;8.80;6.57;;;10.20;99.90;;;;;;5018739;28;20960;-75
2022/12/23 07:44:06;;;;;;;8.20;6.60;;;10.20;99.90;;;;;;5019479;28;21093;-74
2022/12/23 07:46:34;;;;;;;9.77;6.30;;;10.20;99.90;;;;;;5034813;28;20486;-75
2022/12/23 07:49:00;;;;;;;10.03;6.53;;;10.20;99.90;;;;;;5016893;28;20459;-74
2022/12/23 07:51:34;;;;;;;8.50;5.87;;;10.20;99.90;;;;;;5014618;28;20416;-74
2022/12/23 07:54:00;;;;;;;10.30;6.73;;;10.20;99.90;;;;;;5030374;28;20981;-75
2022/12/23 07:56:26;;;;;;;8.77;6.30;;;10.20;99.90;;;;;;5008483;28;20478;-72
2022/12/23 07:58:53;;;;;;;10.90;6.47;;;10.20;99.90;;;;;;4999831;28;20929;-71
2022/12/23 08:01:19;;;;;;;12.90;7.57;;;10.30;99.90;;;;;;4999082;28;20432;-70
2022/12/23 08:03:48;;;;;;;12.83;6.77;;;10.20;99.90;;;;;;4997247;28;21027;-73
2022/12/23 08:06:16;;;;;;;9.47;7.07;;;10.20;99.90;;;;;;5014384;28;20452;-72
2022/12/23 08:08:49;;;;;;;9.93;6.63;;;10.20;99.90;;;;;;5013705;28;20495;-70
2022/12/23 08:11:17;;;;;;;9.83;6.80;;;10.20;99.90;;;;;;5016037;28;20413;-73
2022/12/23 08:13:44;;;;;;;10.23;6.60;;;10.30;99.90;;;;;;5017337;28;20448;-73
2022/12/23 08:16:11;;;;;;;8.63;7.67;;;10.20;99.90;;;;;;5019038;28;21033;-74
2022/12/23 08:18:40;;;;;;;9.43;7.20;;;10.30;99.90;;;;;;5033161;28;20473;-74
2022/12/23 08:21:16;;;;;;;8.70;6.00;;;10.30;99.90;;;;;;5001367;28;20440;-75
2022/12/23 08:23:42;;;;;;;10.73;6.50;;;10.20;99.90;;;;;;5023531;28;20450;-74
2022/12/23 08:26:13;;;;;;;8.70;6.20;;;10.20;99.90;;;;;;5026631;28;20802;-76
2022/12/23 08:28:42;;;;;;;8.77;6.00;;;10.20;99.90;;;;;;5009104;28;20484;-75
2022/12/23 08:31:12;;;;;;;11.23;5.53;;;10.20;99.90;;;;;;5003159;28;21063;-77
2022/12/23 08:33:45;;;;;;;8.93;6.07;;;10.20;99.90;;;;;;5012942;28;20451;-75
2022/12/23 08:36:25;;;;;;;10.63;6.50;;;10.20;99.90;;;;;;5020979;28;20445;-74
2022/12/23 08:38:53;;;;;;;10.77;6.80;;;10.20;99.90;;;;;;5012970;28;20408;-74
2022/12/23 08:41:26;;;;;;;9.47;6.37;;;10.30;99.90;;;;;;5003752;28;21005;-73
2022/12/23 08:43:53;;;;;;;11.53;5.57;;;10.30;99.90;;;;;;5019524;28;20513;-73
2022/12/23 08:46:24;;;;;;;9.53;5.90;;;10.20;99.90;;;;;;5032109;28;20465;-73
2022/12/23 08:48:53;;;;;;;9.50;5.90;;;10.20;99.90;;;;;;5015506;28;20471;-73
2022/12/23 08:51:25;;;;;;;14.07;6.93;;;10.20;99.90;;;;;;5013925;28;20418;-73
2022/12/23 08:53:55;;;;;;;6.73;5.33;;;10.20;99.90;;;;;;5017578;28;20791;-73
2022/12/23 08:56:26;;;;;;;7.30;5.23;;;10.20;99.90;;;;;;5015032;28;20515;-73
2022/12/23 08:58:53;;;;;;;8.30;6.43;;;10.20;99.90;;;;;;5012188;28;20440;-73
2022/12/23 09:01:25;;;;;;;11.23;5.90;;;10.20;99.90;;;;;;5004933;28;20965;-75
2022/12/23 09:03:51;;;;;;;11.67;6.07;;;10.20;99.90;;;;;;5027341;28;20449;-74
2022/12/23 09:06:30;;;;;;;8.83;5.63;;;10.20;99.90;;;;;;5032185;28;20396;-76
2022/12/23 09:08:59;;;;;;;8.40;5.90;;;10.20;99.90;;;;;;5015465;28;20435;-74
2022/12/23 09:11:27;;;;;;;9.07;5.80;;;10.20;99.90;;;;;;5013346;28;20475;-74
2022/12/23 09:13:53;;;;;;;9.17;6.00;;;10.20;99.90;;;;;;5024583;28;20449;-74
2022/12/23 09:16:22;;;;;;;8.50;5.80;;;10.20;99.90;;;;;;4978168;28;20453;-73
2022/12/23 09:18:50;;;;;;;9.73;6.07;;;10.20;99.90;;;;;;5015943;28;20413;-74
2022/12/23 09:21:21;;;;;;;6.57;5.50;;;10.20;99.90;;;;;;5012775;28;20460;-74
2022/12/23 09:23:47;;;;;;;7.37;5.40;;;10.20;99.90;;;;;;5017057;28;20463;-74
2022/12/23 09:26:31;;;;;;;8.00;5.47;;;10.20;99.90;;;;;;5013885;28;20431;-74
2022/12/23 09:28:57;;;;;;;7.80;5.70;;;10.20;99.90;;;;;;5011785;28;20879;-73
2022/12/23 09:31:24;;;;;;;7.83;6.30;;;10.20;99.90;;;;;;5023367;28;20416;-73
2022/12/23 09:33:53;;;;;;;7.60;5.33;;;10.20;99.90;;;;;;4995469;28;20487;-73
2022/12/23 09:36:22;;;;;;;6.80;5.53;;;10.20;99.90;;;;;;5013123;28;20452;-74
2022/12/23 09:38:56;;;;;;;9.90;5.90;;;10.20;99.90;;;;;;5017679;28;20937;-74
2022/12/23 09:41:43;;;;;;;7.00;5.20;;;10.20;99.90;;;;;;5012149;28;20515;-73
2022/12/23 09:44:51;;;;;;;9.60;5.73;;;10.20;99.90;;;;;;5007374;28;20959;-74
2022/12/23 09:47:21;;;;;;;8.67;6.27;;;10.20;99.90;;;;;;5013131;28;20988;-73
2022/12/23 09:49:52;;;;;;;10.63;5.77;;;10.20;99.90;;;;;;5014748;28;20941;-74
2022/12/23 09:52:32;;;;;;;5.53;4.93;;;10.20;99.90;;;;;;5007908;28;20495;-74
2022/12/23 09:55:00;;;;;;;6.40;5.30;;;10.20;99.90;;;;;;4994492;28;20992;-74
2022/12/23 09:57:39;;;;;;;6.20;5.43;;;10.20;99.90;;;;;;4994054;28;20438;-74
2022/12/23 10:00:05;;;;;;;6.73;5.53;;;10.20;99.90;;;;;;5027427;28;20480;-74
2022/12/23 10:03:13;;;;;;;8.07;5.33;;;10.20;99.90;;;;;;5014989;28;20959;-74
2022/12/23 10:06:11;;;;;;;6.33;5.03;;;10.20;99.90;;;;;;4955259;28;20441;-75
2022/12/23 10:08:43;;;;;;;8.37;5.30;;;10.20;99.90;;;;;;4996649;28;20992;-71
2022/12/23 10:11:15;;;;;;;6.40;5.13;;;10.20;99.90;;;;;;4999112;28;20499;-71
2022/12/23 10:14:11;;;;;;;6.73;5.00;;;10.20;99.90;;;;;;5016236;28;20455;-71
2022/12/23 10:16:41;;;;;;;7.27;5.30;;;10.20;99.90;;;;;;5016120;28;20477;-72
2022/12/23 10:19:11;;;;;;;8.07;5.47;;;10.20;99.90;;;;;;5032003;28;20400;-72
2022/12/23 10:21:46;;;;;;;6.50;5.20;;;10.20;99.90;;;;;;5026999;28;20491;-72
2022/12/23 10:24:18;;;;;;;10.33;4.70;;;10.20;99.90;;;;;;4994625;28;20454;-72
2022/12/23 10:27:13;;;;;;;8.50;5.43;;;10.20;99.90;;;;;;5016434;28;20439;-72
2022/12/23 10:29:41;;;;;;;5.53;4.73;;;10.20;99.90;;;;;;4999404;28;20451;-72
2022/12/23 10:32:59;;;;;;;11.10;5.67;;;10.20;99.90;;;;;;4964649;28;20464;-72
2022/12/23 10:35:50;;;;;;;6.50;4.67;;;10.20;99.90;;;;;;4989633;28;20483;-72
2022/12/23 10:38:40;;;;;;;6.70;4.90;;;10.20;99.90;;;;;;5020509;28;20431;-72
2022/12/23 10:41:11;;;;;;;7.10;4.60;;;10.20;99.90;;;;;;4987778;28;20487;-72
2022/12/23 10:43:51;;;;;;;7.40;4.77;;;10.20;99.90;;;;;;5011246;28;21015;-72
2022/12/23 10:46:35;;;;;;;9.07;4.90;;;10.20;99.90;;;;;;4996316;28;20431;-72
2022/12/23 10:49:35;;;;;;;7.73;4.90;;;10.20;99.90;;;;;;5012243;28;20521;-74
2022/12/23 10:52:20;;;;;;;6.17;5.57;;;10.20;99.90;;;;;;5010903;28;20451;-74
2022/12/23 10:54:49;;;;;;;7.80;5.23;;;10.20;99.90;;;;;;5010429;28;20436;-73
2022/12/23 10:57:19;;;;;;;6.90;5.10;;;10.20;99.90;;;;;;5011205;28;20436;-73
2022/12/23 10:59:45;;;;;;;6.63;5.47;;;10.20;99.90;;;;;;5015774;28;20455;-71
2022/12/23 11:02:14;;;;;;;7.50;5.17;;;10.20;99.90;;;;;;5006086;28;20460;-74
2022/12/23 11:04:45;;;;;;;6.53;4.80;;;10.20;99.90;;;;;;5001871;28;20457;-74
2022/12/23 11:07:25;;;;;;;5.17;4.13;;;10.20;99.90;;;;;;4996518;28;20459;-74
2022/12/23 11:09:54;;;;;;;6.60;4.87;;;10.30;99.90;;;;;;5033608;28;20414;-75
2022/12/23 11:12:24;;;;;;;5.80;4.87;;;10.30;99.90;;;;;;5016935;28;20457;-75
2022/12/23 11:14:56;;;;;;;10.40;5.43;;;10.30;99.90;;;;;;4994546;28;20429;-75
2022/12/23 11:17:33;;;;;;;8.67;5.37;;;10.30;99.90;;;;;;5013222;28;20886;-75
2022/12/23 11:20:09;;;;;;;9.67;5.10;;;10.30;99.90;;;;;;5030603;28;20441;-74
2022/12/23 11:22:45;;;;;;;6.37;4.53;;;10.30;99.90;;;;;;5029858;28;20977;-74
2022/12/23 11:25:28;;;;;;;6.80;5.10;;;10.30;99.90;;;;;;5031896;28;20545;-74
2022/12/23 11:28:27;;;;;;;8.70;4.83;;;10.30;99.90;;;;;;4997806;28;20474;-74
2022/12/23 11:30:54;;;;;;;8.20;5.93;;;10.30;99.90;;;;;;4995105;28;21074;-74
2022/12/23 11:33:40;;;;;;;6.27;5.37;;;10.30;99.90;;;;;;5015147;28;20460;-74
2022/12/23 11:36:12;;;;;;;8.20;4.70;;;10.30;99.90;;;;;;5010353;28;20434;-73
2022/12/23 11:39:19;;;;;;;4.97;4.50;;;10.30;99.90;;;;;;4989944;28;20470;-74
2022/12/23 11:41:48;;;;;;;6.00;5.30;;;10.30;99.90;;;;;;4984881;28;20455;-73
2022/12/23 11:44:27;;;;;;;6.20;4.40;;;10.30;99.90;;;;;;5019651;28;20814;-72
2022/12/23 11:46:54;;;;;;;5.43;4.23;;;10.30;99.90;;;;;;4996819;28;20467;-72
2022/12/23 11:49:20;;;;;;;7.60;4.83;;;10.30;99.90;;;;;;5015291;28;20428;-75
2022/12/23 11:52:10;;;;;;;6.33;4.70;;;10.30;99.90;;;;;;5013821;28;20455;-73
2022/12/23 11:54:41;;;;;;;6.33;5.13;;;10.30;99.90;;;;;;5019302;28;20531;-73
2022/12/23 11:57:21;;;;;;;7.20;4.10;;;10.30;99.90;;;;;;5013322;28;20470;-72
2022/12/23 11:59:49;;;;;;;5.73;4.23;;;10.30;99.90;;;;;;5001371;28;20439;-72
2022/12/23 12:02:35;;;;;;;5.30;4.13;;;10.30;99.90;;;;;;5011404;28;20475;-73
2022/12/23 12:05:07;;;;;;;6.50;4.67;;;10.30;99.90;;;;;;5011914;28;20419;-73
2022/12/23 12:07:34;;;;;;;5.10;3.90;;;10.30;99.90;;;;;;5000188;28;20476;-73
2022/12/23 12:10:04;;;;;;;6.03;4.27;;;10.30;99.90;;;;;;5016426;28;20484;-72
2022/12/23 12:12:31;;;;;;;6.27;4.80;;;10.30;99.90;;;;;;4998009;28;20450;-73
2022/12/23 12:15:03;;;;;;;5.00;4.50;;;10.30;99.90;;;;;;5013286;28;20471;-73
2022/12/23 12:17:41;;;;;;;5.67;4.17;;;10.30;99.90;;;;;;5015742;28;20431;-73
2022/12/23 12:20:22;;;;;;;5.20;4.07;;;10.30;99.90;;;;;;5014765;28;20451;-73
2022/12/23 12:23:05;;;;;;;4.37;3.93;;;10.30;99.90;;;;;;4997827;28;20478;-72
2022/12/23 12:25:49;;;;;;;4.33;3.03;;;10.30;99.90;;;;;;5017756;28;20509;-73
2022/12/23 12:28:28;;;;;;;4.13;3.50;;;10.30;99.90;;;;;;5032106;28;20817;-73
2022/12/23 12:31:03;;;;;;;8.97;3.60;;;10.30;99.90;;;;;;5027543;28;20459;-72
2022/12/23 12:33:52;;;;;;;5.77;3.87;;;10.30;99.90;;;;;;5014367;28;20450;-73
2022/12/23 12:36:48;;;;;;;5.47;4.23;;;10.30;99.90;;;;;;5013267;28;20418;-72
2022/12/23 12:39:20;;;;;;;5.70;3.80;;;10.30;99.90;;;;;;5019855;28;20439;-72
2022/12/23 12:42:23;;;;;;;5.27;4.27;;;10.30;99.90;;;;;;5019425;28;20436;-72
2022/12/23 12:45:27;;;;;;;3.47;3.17;;;10.30;99.90;;;;;;5029434;28;20533;-73
2022/12/23 12:48:28;;;;;;;6.30;3.70;;;10.30;99.90;;;;;;4985132;28;20470;-72
2022/12/23 12:51:11;;;;;;;4.20;3.63;;;10.30;99.90;;;;;;4981120;28;20462;-72
2022/12/23 12:53:54;;;;;;;4.60;4.00;;;10.30;99.90;;;;;;5004161;28;20459;-73
2022/12/23 12:56:32;;;;;;;4.17;3.20;;;10.30;99.90;;;;;;5000136;28;20507;-73
2022/12/23 12:59:00;;;;;;;4.73;3.40;;;10.30;99.90;;;;;;5012586;28;20424;-73
2022/12/23 13:01:34;;;;;;;4.70;3.50;;;10.30;99.90;;;;;;5005848;28;20986;-73
2022/12/23 13:04:22;;;;;;;4.93;3.77;;;10.30;99.90;;;;;;5033242;28;20431;-74
2022/12/23 13:07:18;;;;;;;4.33;3.70;;;10.30;99.90;;;;;;5028154;28;20421;-75
2022/12/23 13:10:14;;;;;;;5.53;3.77;;;10.30;99.90;;;;;;5016331;28;20419;-75
2022/12/23 13:12:49;;;;;;;5.07;3.70;;;10.30;99.90;;;;;;5032757;28;20458;-73
2022/12/23 13:15:29;;;;;;;7.57;3.90;;;10.30;99.90;;;;;;5029397;28;20396;-75
2022/12/23 13:18:23;;;;;;;5.07;3.83;;;10.30;99.90;;;;;;5001271;28;20427;-73
2022/12/23 13:21:15;;;;;;;5.33;3.70;;;10.30;99.90;;;;;;5032931;28;20455;-74
2022/12/23 13:23:55;;;;;;;6.70;3.60;;;10.30;99.90;;;;;;5020876;28;20448;-74
2022/12/23 13:27:02;;;;;;;6.43;3.53;;;10.30;99.90;;;;;;5012455;28;20808;-74
2022/12/23 13:29:50;;;;;;;4.80;4.10;;;10.30;99.90;;;;;;5029513;28;20486;-73
2022/12/23 13:32:42;;;;;;;4.37;3.30;;;10.30;99.90;;;;;;5031850;28;20948;-75
2022/12/23 13:35:41;;;;;;;4.43;2.70;;;10.30;99.90;;;;;;4994269;28;20428;-75
2022/12/23 13:38:33;;;;;;;7.50;3.63;;;10.30;99.90;;;;;;4994056;28;20433;-75
2022/12/23 13:41:08;;;;;;;4.70;3.30;;;10.30;99.90;;;;;;4977300;28;20894;-74
2022/12/23 13:43:53;;;;;;;5.83;4.20;;;10.30;99.90;;;;;;4977295;28;20456;-74
2022/12/23 13:46:24;;;;;;;3.33;3.03;;;10.30;99.90;;;;;;4993428;28;20394;-74
2022/12/23 13:49:13;;;;;;;5.00;3.43;;;10.30;99.90;;;;;;5002871;28;20514;-74